Time;durP1;ratioP1;P1;durP2;ratioP2;P2;SDS_P1;SDS_P2;PMS_P1;PMS_P2;Temp;Humidity;BMP_temperature;BMP_pressure;BME280_temperature;BME280_humidity;BME280_pressure;Samples;Min_cycle;Max_cycle;Signal;HPM_P1;HPM_P2
2021/12/10 00:00:38;;;;;;;26.20;11.40;;;4.70;99.90;;;;;;5020355;28;20112;-84
2021/12/10 00:03:10;;;;;;;30.00;13.07;;;4.70;99.90;;;;;;4976554;28;20049;-84
2021/12/10 00:05:41;;;;;;;22.98;11.25;;;4.70;99.90;;;;;;4994907;28;20443;-84
2021/12/10 00:08:08;;;;;;;25.63;10.30;;;4.70;99.90;;;;;;4994193;28;20049;-84
2021/12/10 00:10:39;;;;;;;24.33;11.60;;;4.70;99.90;;;;;;4976745;28;20047;-84
2021/12/10 00:13:06;;;;;;;27.95;13.07;;;4.70;99.90;;;;;;4995131;28;20037;-84
2021/12/10 00:15:33;;;;;;;24.42;11.18;;;4.60;99.90;;;;;;4975694;28;20088;-84
2021/12/10 00:18:01;;;;;;;24.00;11.57;;;4.50;99.90;;;;;;4994093;28;20038;-84
2021/12/10 00:20:31;;;;;;;25.92;11.68;;;4.50;99.90;;;;;;4991449;28;20053;-84
2021/12/10 00:22:59;;;;;;;28.38;12.80;;;4.40;99.90;;;;;;4993106;28;20132;-84
2021/12/10 00:25:37;;;;;;;20.42;9.80;;;4.30;99.90;;;;;;5003665;28;20376;-84
2021/12/10 00:28:16;;;;;;;27.27;11.95;;;4.30;99.90;;;;;;4996135;28;20526;-84
2021/12/10 00:31:05;;;;;;;28.60;11.48;;;4.30;99.90;;;;;;4991103;28;20046;-83
2021/12/10 00:33:41;;;;;;;21.20;11.27;;;4.30;99.90;;;;;;4994046;28;20372;-84
2021/12/10 00:36:07;;;;;;;31.17;11.60;;;4.30;99.90;;;;;;5000583;28;20104;-83
2021/12/10 00:38:35;;;;;;;28.02;10.57;;;4.30;99.90;;;;;;4978778;28;20034;-84
2021/12/10 00:41:02;;;;;;;20.95;9.55;;;4.30;99.90;;;;;;4979107;28;20095;-84
2021/12/10 00:43:28;;;;;;;23.05;10.13;;;4.20;99.90;;;;;;4992861;28;20113;-84
2021/12/10 00:45:54;;;;;;;19.70;9.32;;;4.30;99.90;;;;;;4994727;28;20137;-84
2021/12/10 00:48:20;;;;;;;18.25;9.00;;;4.30;99.90;;;;;;4994140;28;20045;-84
2021/12/10 00:50:49;;;;;;;25.02;10.07;;;4.30;99.90;;;;;;4979667;28;20509;-84
2021/12/10 00:53:16;;;;;;;18.17;8.15;;;4.30;99.90;;;;;;4994248;28;20061;-85
2021/12/10 00:55:42;;;;;;;25.05;8.32;;;4.40;99.90;;;;;;5002431;28;20045;-84
2021/12/10 00:58:08;;;;;;;17.25;7.72;;;4.40;99.90;;;;;;4992099;28;20042;-84
2021/12/10 01:00:38;;;;;;;20.90;9.05;;;4.40;99.90;;;;;;4988520;28;20037;-84
2021/12/10 01:03:06;;;;;;;20.30;8.25;;;4.40;99.90;;;;;;4970221;28;20452;-84
2021/12/10 01:05:33;;;;;;;24.63;8.00;;;4.40;99.90;;;;;;5008540;28;20274;-84
2021/12/10 01:07:59;;;;;;;17.52;8.50;;;4.50;99.90;;;;;;4990561;28;20302;-84
2021/12/10 01:10:33;;;;;;;16.75;8.38;;;4.50;99.90;;;;;;4998064;28;20068;-84
2021/12/10 01:13:01;;;;;;;16.65;7.55;;;4.50;99.90;;;;;;5000419;28;20551;-84
2021/12/10 01:16:08;;;;;;;13.82;6.65;;;4.50;99.90;;;;;;4979872;28;20034;-84
2021/12/10 01:24:29;;;;;;;14.93;8.32;;;4.50;99.90;;;;;;4993086;28;20077;-84
2021/12/10 01:26:59;;;;;;;18.48;8.10;;;4.50;99.90;;;;;;4974968;28;20087;-84
2021/12/10 01:29:34;;;;;;;22.67;9.15;;;4.50;99.90;;;;;;4976922;28;20483;-85
2021/12/10 01:32:05;;;;;;;19.13;8.30;;;4.50;99.90;;;;;;4994395;28;20046;-85
2021/12/10 01:34:30;;;;;;;14.15;6.68;;;4.50;99.90;;;;;;4977901;28;20087;-83
2021/12/10 01:36:57;;;;;;;23.77;9.20;;;4.50;99.90;;;;;;4976320;28;20113;-83
2021/12/10 01:39:27;;;;;;;16.38;8.70;;;4.60;99.90;;;;;;4975036;28;20044;-84
2021/12/10 01:41:59;;;;;;;18.27;9.20;;;4.50;99.90;;;;;;5020432;28;20069;-84
2021/12/10 01:44:30;;;;;;;16.08;8.80;;;4.60;99.90;;;;;;4978899;28;20038;-83
2021/12/10 01:46:59;;;;;;;16.65;8.55;;;4.60;99.90;;;;;;4981428;28;20065;-84
2021/12/10 01:49:25;;;;;;;21.48;9.13;;;4.50;99.90;;;;;;4978081;28;20117;-84
2021/12/10 01:51:51;;;;;;;20.25;9.20;;;4.60;99.90;;;;;;4994851;28;20042;-83
2021/12/10 01:54:31;;;;;;;19.92;8.23;;;4.60;99.90;;;;;;4974696;28;20034;-84
2021/12/10 01:56:59;;;;;;;25.13;10.23;;;4.50;99.90;;;;;;4990776;28;20052;-83
2021/12/10 01:59:28;;;;;;;20.60;9.30;;;4.50;99.90;;;;;;4981322;28;20085;-83
2021/12/10 02:01:58;;;;;;;13.68;7.20;;;4.50;99.90;;;;;;4982534;28;20133;-84
2021/12/10 02:04:28;;;;;;;19.15;8.27;;;4.50;99.90;;;;;;4990833;28;20149;-84
2021/12/10 02:06:55;;;;;;;19.95;9.05;;;4.50;99.90;;;;;;4989370;28;20058;-84
2021/12/10 02:09:21;;;;;;;16.63;9.48;;;4.50;99.90;;;;;;4986799;28;20035;-83
2021/12/10 02:11:47;;;;;;;16.95;8.52;;;4.50;99.90;;;;;;4984590;28;20330;-83
2021/12/10 02:14:13;;;;;;;18.42;8.95;;;4.50;99.90;;;;;;4991398;28;20070;-83
2021/12/10 02:16:39;;;;;;;17.60;8.57;;;4.50;99.90;;;;;;4982732;28;20046;-83
2021/12/10 02:19:06;;;;;;;13.77;5.47;;;4.50;99.90;;;;;;4968575;28;20080;-83
2021/12/10 02:21:34;;;;;;;16.80;8.70;;;4.50;99.90;;;;;;4977942;28;20050;-83
2021/12/10 02:24:02;;;;;;;19.75;8.43;;;4.50;99.90;;;;;;4990101;28;20050;-83
2021/12/10 02:26:34;;;;;;;18.48;8.38;;;4.40;99.90;;;;;;4988498;28;20042;-84
2021/12/10 02:29:00;;;;;;;15.07;7.82;;;4.40;99.90;;;;;;4999509;28;20088;-84
2021/12/10 02:31:27;;;;;;;15.18;7.63;;;4.40;99.90;;;;;;4995083;28;20042;-83
2021/12/10 02:33:55;;;;;;;13.50;7.53;;;4.40;99.90;;;;;;4974142;28;20030;-84
2021/12/10 02:36:22;;;;;;;13.88;7.07;;;4.40;99.90;;;;;;4981748;28;20042;-83
2021/12/10 02:38:51;;;;;;;15.65;7.60;;;4.40;99.90;;;;;;4979366;28;20066;-83
2021/12/10 02:41:20;;;;;;;14.68;7.60;;;4.40;99.90;;;;;;4985889;28;20432;-83
2021/12/10 02:43:47;;;;;;;16.25;8.00;;;4.30;99.90;;;;;;4976220;28;20046;-83
2021/12/10 02:46:14;;;;;;;15.73;7.15;;;4.30;99.90;;;;;;4984916;28;20056;-83
2021/12/10 02:48:40;;;;;;;18.58;7.07;;;4.30;99.90;;;;;;5008974;28;20096;-83
2021/12/10 02:51:07;;;;;;;15.88;6.82;;;4.30;99.90;;;;;;4997621;28;20116;-83
2021/12/10 02:53:40;;;;;;;17.33;7.13;;;4.30;99.90;;;;;;4993742;28;20042;-83
2021/12/10 02:56:05;;;;;;;;;;;4.30;99.90;;;;;;4991208;28;20057;-83
2021/12/10 02:58:31;;;;;;;16.27;6.97;;;4.30;99.90;;;;;;4978791;28;19922;-83
2021/12/10 03:01:17;;;;;;;16.70;7.15;;;4.30;99.90;;;;;;4998860;28;20034;-83
2021/12/10 03:03:43;;;;;;;13.15;6.80;;;4.30;99.90;;;;;;4991856;28;20057;-83
2021/12/10 03:06:11;;;;;;;11.18;6.72;;;4.30;99.90;;;;;;4995820;28;20046;-83
2021/12/10 03:08:39;;;;;;;16.02;6.75;;;4.30;99.90;;;;;;4979188;28;20102;-83
2021/12/10 03:11:05;;;;;;;13.15;6.25;;;4.30;99.90;;;;;;4996182;28;20101;-83
2021/12/10 03:13:31;;;;;;;15.82;7.55;;;4.20;99.90;;;;;;4995825;28;20057;-83
2021/12/10 03:15:57;;;;;;;15.05;5.93;;;4.20;99.90;;;;;;4991166;28;20060;-83
2021/12/10 03:18:23;;;;;;;16.92;6.60;;;4.20;99.90;;;;;;4994810;28;20050;-83
2021/12/10 03:20:49;;;;;;;13.25;6.22;;;4.10;99.90;;;;;;4987519;28;20041;-83
2021/12/10 03:23:15;;;;;;;15.63;6.18;;;4.10;99.90;;;;;;4985210;28;20038;-82
2021/12/10 03:25:41;;;;;;;16.67;7.13;;;4.00;99.90;;;;;;4972505;28;20047;-83
2021/12/10 03:28:08;;;;;;;11.13;6.38;;;3.90;99.90;;;;;;4991608;28;20034;-83
2021/12/10 03:30:39;;;;;;;12.48;6.35;;;3.90;99.90;;;;;;4996767;28;20038;-83
2021/12/10 03:33:05;;;;;;;13.18;6.30;;;3.90;99.90;;;;;;4998290;28;20423;-83
2021/12/10 03:35:35;;;;;;;15.05;6.32;;;3.80;99.90;;;;;;4996525;28;20033;-83
2021/12/10 03:38:04;;;;;;;17.50;6.65;;;3.70;99.90;;;;;;4975944;28;20049;-84
2021/12/10 03:40:31;;;;;;;10.88;5.47;;;3.70;99.90;;;;;;5010602;28;20030;-83
2021/12/10 03:43:00;;;;;;;9.55;5.78;;;3.60;99.90;;;;;;4993220;28;20541;-84
2021/12/10 03:45:33;;;;;;;14.63;5.90;;;3.60;99.90;;;;;;4979742;28;20435;-83
2021/12/10 03:48:08;;;;;;;17.15;6.22;;;3.60;99.90;;;;;;4986310;28;20046;-83
2021/12/10 03:50:34;;;;;;;12.82;6.70;;;3.50;99.90;;;;;;5001420;28;20513;-83
2021/12/10 03:53:01;;;;;;;14.40;6.15;;;3.40;99.90;;;;;;4994653;28;20054;-83
2021/12/10 03:55:27;;;;;;;14.02;5.65;;;3.40;99.90;;;;;;4994174;28;20044;-83
2021/12/10 03:57:54;;;;;;;16.50;6.78;;;3.40;99.90;;;;;;4980414;28;20391;-83
2021/12/10 04:00:24;;;;;;;14.77;8.52;;;3.40;99.90;;;;;;4995288;28;20144;-84
2021/12/10 04:02:50;;;;;;;14.00;6.38;;;3.30;99.90;;;;;;4986034;28;20407;-83
2021/12/10 04:05:17;;;;;;;15.32;7.53;;;3.30;99.90;;;;;;4977771;28;20061;-82
2021/12/10 04:07:42;;;;;;;14.25;6.07;;;3.30;99.90;;;;;;4977437;28;20057;-84
2021/12/10 04:10:11;;;;;;;17.35;7.15;;;3.20;99.90;;;;;;4995320;28;20487;-83
2021/12/10 04:12:37;;;;;;;14.07;6.25;;;3.20;99.90;;;;;;4990054;28;20050;-83
2021/12/10 04:15:05;;;;;;;12.70;6.57;;;3.20;99.90;;;;;;4996032;28;20046;-83
2021/12/10 04:17:31;;;;;;;16.67;7.15;;;3.20;99.90;;;;;;4991279;28;20377;-83
2021/12/10 04:19:56;;;;;;;15.95;7.10;;;3.20;99.90;;;;;;4995220;28;20041;-83
2021/12/10 04:22:24;;;;;;;17.63;6.93;;;3.10;99.90;;;;;;4994523;28;20781;-83
2021/12/10 04:24:51;;;;;;;15.10;6.82;;;3.10;99.90;;;;;;4976916;28;20045;-83
2021/12/10 04:27:17;;;;;;;13.63;6.35;;;3.10;99.90;;;;;;4997539;28;20040;-83
2021/12/10 04:29:44;;;;;;;14.25;6.55;;;3.10;99.90;;;;;;4996528;28;20048;-83
2021/12/10 04:32:11;;;;;;;17.17;6.82;;;3.00;99.90;;;;;;5012727;28;20077;-83
2021/12/10 04:34:38;;;;;;;16.88;7.80;;;3.00;99.90;;;;;;4995850;28;20037;-84
2021/12/10 04:37:06;;;;;;;13.82;6.82;;;2.90;99.90;;;;;;4991448;28;20041;-83
2021/12/10 04:39:34;;;;;;;16.23;7.50;;;2.90;99.90;;;;;;4978842;28;20041;-83
2021/12/10 04:41:59;;;;;;;15.43;7.65;;;2.90;99.90;;;;;;4971221;28;20112;-83
2021/12/10 04:44:25;;;;;;;18.40;7.65;;;2.90;99.90;;;;;;4978995;28;20423;-83
2021/12/10 04:46:51;;;;;;;14.00;7.32;;;2.80;99.90;;;;;;4992560;28;20042;-83
2021/12/10 04:49:17;;;;;;;13.55;6.68;;;2.80;99.90;;;;;;4972370;28;20045;-83
2021/12/10 04:51:48;;;;;;;14.48;6.45;;;2.80;99.90;;;;;;4995102;28;20033;-83
2021/12/10 04:54:14;;;;;;;16.20;7.22;;;2.80;99.90;;;;;;4981351;28;20072;-83
2021/12/10 04:56:41;;;;;;;14.45;7.78;;;2.70;99.90;;;;;;5003839;28;20063;-84
2021/12/10 04:59:09;;;;;;;16.05;7.35;;;2.70;99.90;;;;;;4989700;28;20045;-84
2021/12/10 05:01:36;;;;;;;16.63;7.38;;;2.70;99.90;;;;;;4977075;28;20050;-84
2021/12/10 05:04:06;;;;;;;17.65;7.78;;;2.60;99.90;;;;;;4995695;28;20082;-83
2021/12/10 05:06:32;;;;;;;15.65;7.75;;;2.60;99.90;;;;;;4984046;28;20045;-83
2021/12/10 05:08:57;;;;;;;17.42;7.78;;;2.60;99.90;;;;;;4968515;28;20504;-84
2021/12/10 05:11:23;;;;;;;15.32;7.47;;;2.50;99.90;;;;;;4992557;28;20117;-84
2021/12/10 05:13:49;;;;;;;16.30;7.47;;;2.50;99.90;;;;;;4976270;28;20088;-84
2021/12/10 05:16:16;;;;;;;14.40;7.78;;;2.50;99.90;;;;;;4992690;28;20066;-84
2021/12/10 05:18:46;;;;;;;18.85;8.02;;;2.50;99.90;;;;;;4998945;28;20034;-84
2021/12/10 05:21:13;;;;;;;17.60;8.38;;;2.50;99.90;;;;;;4975266;28;20055;-83
2021/12/10 05:23:39;;;;;;;20.08;7.93;;;2.50;99.90;;;;;;4987470;28;20065;-83
2021/12/10 05:26:06;;;;;;;15.52;7.85;;;2.50;99.90;;;;;;4971720;28;20039;-84
2021/12/10 05:28:34;;;;;;;15.90;8.35;;;2.40;99.90;;;;;;4971783;28;20046;-84
2021/12/10 05:31:00;;;;;;;18.48;7.95;;;2.40;99.90;;;;;;4966643;28;20129;-84
2021/12/10 05:33:28;;;;;;;14.43;7.60;;;2.40;99.90;;;;;;4987382;28;20038;-84
2021/12/10 05:35:54;;;;;;;17.52;8.48;;;2.40;99.90;;;;;;4971651;28;20045;-84
2021/12/10 05:38:21;;;;;;;13.10;7.63;;;2.40;99.90;;;;;;4982740;28;20026;-84
2021/12/10 05:40:49;;;;;;;14.07;7.10;;;2.40;99.90;;;;;;4973566;28;20051;-84
2021/12/10 05:43:16;;;;;;;17.88;8.23;;;2.40;99.90;;;;;;4994217;28;20495;-84
2021/12/10 05:45:42;;;;;;;16.75;8.02;;;2.30;99.90;;;;;;4995144;28;20036;-84
2021/12/10 05:48:08;;;;;;;16.58;7.72;;;2.30;99.90;;;;;;4975058;28;20037;-84
2021/12/10 05:50:36;;;;;;;15.02;7.65;;;2.30;99.90;;;;;;4980157;28;20049;-84
2021/12/10 05:53:03;;;;;;;15.27;7.07;;;2.30;99.90;;;;;;4976768;28;20041;-84
2021/12/10 05:55:29;;;;;;;18.95;8.50;;;2.20;99.90;;;;;;4996144;28;20045;-85
2021/12/10 05:57:55;;;;;;;13.20;7.10;;;2.20;99.90;;;;;;4994799;28;20034;-84
2021/12/10 06:00:31;;;;;;;15.90;7.90;;;2.20;99.90;;;;;;4990566;28;20038;-84
2021/12/10 06:02:58;;;;;;;15.85;7.78;;;2.20;99.90;;;;;;4988639;28;20041;-84
2021/12/10 06:05:25;;;;;;;14.02;7.45;;;2.20;99.90;;;;;;4955312;28;20568;-83
2021/12/10 06:07:50;;;;;;;16.52;7.25;;;2.20;99.90;;;;;;4964292;28;20039;-83
2021/12/10 06:10:18;;;;;;;17.13;7.95;;;2.20;99.90;;;;;;4949620;28;20035;-83
2021/12/10 06:12:46;;;;;;;13.65;6.80;;;2.10;99.90;;;;;;4971085;28;20038;-83
2021/12/10 06:15:13;;;;;;;14.70;7.35;;;2.20;99.90;;;;;;4965102;28;20085;-83
2021/12/10 06:17:39;;;;;;;13.30;7.18;;;2.20;99.90;;;;;;4993520;28;20046;-84
2021/12/10 06:20:07;;;;;;;13.23;7.05;;;2.10;99.90;;;;;;4993701;28;20038;-84
2021/12/10 06:22:33;;;;;;;13.13;6.50;;;2.10;99.90;;;;;;4973795;28;20525;-84
2021/12/10 06:24:59;;;;;;;12.45;6.80;;;2.10;99.90;;;;;;4960180;28;20122;-83
2021/12/10 06:27:25;;;;;;;11.95;7.57;;;2.10;99.90;;;;;;4976246;28;20112;-83
2021/12/10 06:29:51;;;;;;;13.88;7.22;;;2.10;99.90;;;;;;4998568;28;20198;-83
2021/12/10 06:32:17;;;;;;;14.25;6.43;;;2.10;99.90;;;;;;4969355;28;20042;-83
2021/12/10 06:34:43;;;;;;;13.43;6.78;;;2.10;99.90;;;;;;4974353;28;20408;-84
2021/12/10 06:37:09;;;;;;;10.98;6.30;;;2.10;99.90;;;;;;4960149;28;20026;-83
2021/12/10 06:39:34;;;;;;;14.98;7.03;;;2.10;99.90;;;;;;4974300;28;20082;-83
2021/12/10 06:42:02;;;;;;;11.63;6.13;;;2.10;99.90;;;;;;4988086;28;20415;-83
2021/12/10 06:44:28;;;;;;;11.85;6.65;;;2.10;99.90;;;;;;4977218;28;20527;-83
2021/12/10 06:46:53;;;;;;;12.23;6.38;;;2.00;99.90;;;;;;4959676;28;20034;-84
2021/12/10 06:49:19;;;;;;;12.73;5.90;;;2.00;99.90;;;;;;4979056;28;20421;-84
2021/12/10 06:51:45;;;;;;;13.90;6.22;;;2.00;99.90;;;;;;4938734;28;20035;-84
2021/12/10 06:54:10;;;;;;;12.65;6.13;;;2.00;99.90;;;;;;4953116;28;20035;-83
2021/12/10 06:56:36;;;;;;;17.35;6.40;;;2.00;99.90;;;;;;4956673;28;20050;-85
2021/12/10 06:59:08;;;;;;;12.65;6.60;;;2.00;99.90;;;;;;4965916;28;20108;-83
2021/12/10 07:01:38;;;;;;;11.63;6.70;;;2.00;99.90;;;;;;4958420;28;20535;-83
2021/12/10 07:04:11;;;;;;;12.93;6.07;;;2.00;99.90;;;;;;4952837;28;20514;-83
2021/12/10 07:06:43;;;;;;;12.23;5.82;;;2.00;99.90;;;;;;4949112;28;20504;-83
2021/12/10 07:09:16;;;;;;;10.35;5.38;;;2.00;99.90;;;;;;4926023;28;20065;-84
2021/12/10 07:11:42;;;;;;;12.93;5.65;;;2.00;99.90;;;;;;4944969;28;20769;-84
2021/12/10 07:14:08;;;;;;;12.57;5.22;;;2.00;99.90;;;;;;4954765;28;20073;-84
2021/12/10 07:16:33;;;;;;;11.18;5.45;;;2.00;99.90;;;;;;4956635;28;20038;-84
2021/12/10 07:19:03;;;;;;;11.90;5.97;;;2.00;99.90;;;;;;4955733;28;20038;-82
2021/12/10 07:21:31;;;;;;;12.02;6.38;;;1.90;99.90;;;;;;4961076;28;20055;-82
2021/12/10 07:23:58;;;;;;;12.98;4.82;;;1.90;99.90;;;;;;4956222;28;20081;-83
2021/12/10 07:26:24;;;;;;;13.55;5.57;;;1.90;99.90;;;;;;4958207;28;20046;-82
2021/12/10 07:28:50;;;;;;;10.40;5.32;;;2.00;99.90;;;;;;4971339;28;20043;-81
2021/12/10 07:31:16;;;;;;;10.35;4.95;;;1.90;99.90;;;;;;4952782;28;20030;-82
2021/12/10 07:33:41;;;;;;;13.88;5.22;;;1.90;99.90;;;;;;4973879;28;20400;-82
2021/12/10 07:36:08;;;;;;;12.63;5.50;;;1.90;99.90;;;;;;4968281;28;20042;-82
2021/12/10 07:38:34;;;;;;;9.50;4.72;;;2.00;99.90;;;;;;4946411;28;20039;-82
2021/12/10 07:41:00;;;;;;;12.25;5.28;;;1.90;99.90;;;;;;4940634;28;20031;-83
2021/12/10 07:43:26;;;;;;;12.43;4.75;;;1.90;99.90;;;;;;4949214;28;20113;-83
2021/12/10 07:45:53;;;;;;;10.90;4.75;;;2.00;99.90;;;;;;4970067;28;20185;-82
2021/12/10 07:48:20;;;;;;;8.35;4.28;;;2.00;99.90;;;;;;4960747;28;20046;-83
2021/12/10 07:50:58;;;;;;;11.75;4.43;;;2.00;99.90;;;;;;4956065;28;20488;-82
2021/12/10 07:53:25;;;;;;;10.07;4.97;;;1.90;99.90;;;;;;4969921;28;20082;-82
2021/12/10 07:55:51;;;;;;;11.93;5.32;;;2.00;99.90;;;;;;4976223;28;20042;-82
2021/12/10 07:58:18;;;;;;;8.43;4.15;;;2.00;99.90;;;;;;4969733;28;20030;-82
2021/12/10 08:00:47;;;;;;;10.77;4.80;;;2.00;99.90;;;;;;4956937;28;20073;-82
2021/12/10 08:03:13;;;;;;;8.38;3.72;;;2.00;99.90;;;;;;4955725;28;20065;-83
2021/12/10 08:05:40;;;;;;;10.50;4.85;;;2.00;99.90;;;;;;4956222;28;20058;-82
2021/12/10 08:08:06;;;;;;;12.98;4.10;;;2.00;99.90;;;;;;4954079;28;20412;-82
2021/12/10 08:10:33;;;;;;;11.05;3.90;;;2.10;99.90;;;;;;4976127;28;20038;-82
2021/12/10 08:12:59;;;;;;;8.60;3.95;;;2.10;99.90;;;;;;4975755;28;20054;-82
2021/12/10 08:15:24;;;;;;;8.18;4.07;;;2.20;99.90;;;;;;4954203;28;20089;-82
2021/12/10 08:17:50;;;;;;;7.25;3.55;;;2.20;99.90;;;;;;4966880;28;20051;-82
2021/12/10 08:20:19;;;;;;;9.18;4.15;;;2.20;99.90;;;;;;4987862;28;20112;-83
2021/12/10 08:22:46;;;;;;;8.25;3.72;;;2.30;99.90;;;;;;4972250;28;20042;-83
2021/12/10 08:25:12;;;;;;;7.05;3.42;;;2.30;99.90;;;;;;4969610;28;20469;-83
2021/12/10 08:27:38;;;;;;;7.97;3.22;;;2.20;99.90;;;;;;4972785;28;20054;-83
2021/12/10 08:30:09;;;;;;;11.00;3.78;;;2.30;99.90;;;;;;4982974;28;20042;-82
2021/12/10 08:32:39;;;;;;;13.60;3.33;;;2.20;99.90;;;;;;4978002;28;20074;-82
2021/12/10 08:35:09;;;;;;;8.30;3.58;;;2.20;99.90;;;;;;4979946;28;20524;-82
2021/12/10 08:37:36;;;;;;;7.68;3.50;;;2.20;99.90;;;;;;4973000;28;20050;-83
2021/12/10 08:40:02;;;;;;;9.18;3.17;;;2.20;99.90;;;;;;4974259;28;20499;-82
2021/12/10 08:42:28;;;;;;;10.50;3.78;;;2.20;99.90;;;;;;4975654;28;20097;-82
2021/12/10 08:44:53;;;;;;;6.90;3.42;;;2.10;99.90;;;;;;4972344;28;20038;-82
2021/12/10 08:47:19;;;;;;;8.90;3.53;;;2.10;99.90;;;;;;4959592;28;20096;-82
2021/12/10 08:49:45;;;;;;;9.63;3.80;;;2.10;99.90;;;;;;4973347;28;20034;-82
2021/12/10 08:52:11;;;;;;;10.30;3.42;;;2.10;99.90;;;;;;4955453;28;20069;-82
2021/12/10 08:54:38;;;;;;;7.93;3.30;;;2.10;99.90;;;;;;4974006;28;20042;-82
2021/12/10 08:57:06;;;;;;;10.00;3.72;;;2.10;99.90;;;;;;4973248;28;20125;-82
2021/12/10 08:59:34;;;;;;;8.05;3.42;;;2.10;99.90;;;;;;4972480;28;20440;-82
2021/12/10 09:02:02;;;;;;;11.80;4.03;;;2.10;99.90;;;;;;4973269;28;20038;-82
2021/12/10 09:04:30;;;;;;;9.57;3.28;;;2.10;99.90;;;;;;4972215;28;20058;-82
2021/12/10 09:07:00;;;;;;;7.32;3.72;;;2.20;99.90;;;;;;4956150;28;20268;-82
2021/12/10 09:09:28;;;;;;;10.02;3.58;;;2.20;99.90;;;;;;4972417;28;20041;-82
2021/12/10 09:12:02;;;;;;;9.18;3.67;;;2.20;99.90;;;;;;4973034;28;20046;-82
2021/12/10 09:14:36;;;;;;;9.23;3.10;;;2.20;99.90;;;;;;4976956;28;20128;-82
2021/12/10 09:17:03;;;;;;;8.07;3.50;;;2.20;99.90;;;;;;4958676;28;20045;-82
2021/12/10 09:19:31;;;;;;;8.48;3.95;;;2.30;99.90;;;;;;4958141;28;20038;-82
2021/12/10 09:21:58;;;;;;;6.95;3.70;;;2.30;99.90;;;;;;4955877;28;20057;-82
2021/12/10 09:24:24;;;;;;;7.80;4.18;;;2.40;99.90;;;;;;4972030;28;20081;-82
2021/12/10 09:26:55;;;;;;;8.02;3.22;;;2.40;99.90;;;;;;4973499;28;20466;-82
2021/12/10 09:29:21;;;;;;;9.40;3.42;;;2.50;99.90;;;;;;4973490;28;20038;-82
2021/12/10 09:31:47;;;;;;;7.80;2.92;;;2.50;99.90;;;;;;4953865;28;20042;-83
2021/12/10 09:34:15;;;;;;;8.57;3.35;;;2.50;99.90;;;;;;4973394;28;20030;-83
2021/12/10 09:36:42;;;;;;;9.68;3.65;;;2.60;99.90;;;;;;4971298;28;20034;-83
2021/12/10 09:39:09;;;;;;;11.82;3.38;;;2.60;99.90;;;;;;4973040;28;20116;-82
2021/12/10 09:41:36;;;;;;;8.80;4.72;;;2.70;99.90;;;;;;4973262;28;20057;-83
2021/12/10 09:44:03;;;;;;;10.15;4.60;;;2.70;99.90;;;;;;4966488;28;20078;-83
2021/12/10 09:46:29;;;;;;;10.13;3.83;;;2.80;99.90;;;;;;4953183;28;20057;-83
2021/12/10 09:48:54;;;;;;;9.20;3.60;;;2.80;99.90;;;;;;4972724;28;20042;-83
2021/12/10 09:51:34;;;;;;;7.32;3.10;;;2.90;99.90;;;;;;4971178;28;20050;-82
2021/12/10 09:54:02;;;;;;;12.20;3.47;;;2.90;99.90;;;;;;4958849;28;20462;-82
2021/12/10 09:56:28;;;;;;;6.55;3.28;;;3.00;99.90;;;;;;4976792;28;20475;-82
2021/12/10 09:58:56;;;;;;;8.90;3.00;;;3.10;99.90;;;;;;4974571;28;20042;-83
2021/12/10 10:01:42;;;;;;;7.97;3.75;;;3.10;99.90;;;;;;4959264;28;20045;-83
2021/12/10 10:04:10;;;;;;;6.82;3.47;;;3.20;99.90;;;;;;4996162;28;20129;-83
2021/12/10 10:06:43;;;;;;;8.75;3.05;;;3.30;99.90;;;;;;4959456;28;20446;-83
2021/12/10 10:09:11;;;;;;;6.72;2.92;;;3.40;99.90;;;;;;4977113;28;20459;-82
2021/12/10 10:11:37;;;;;;;10.63;3.35;;;3.40;99.90;;;;;;4963470;28;20046;-83
2021/12/10 10:14:05;;;;;;;8.00;2.83;;;3.50;99.90;;;;;;4977632;28;20034;-83
2021/12/10 10:16:34;;;;;;;6.43;2.75;;;3.60;99.90;;;;;;4975793;28;20058;-83
2021/12/10 10:19:02;;;;;;;6.20;2.60;;;3.70;99.90;;;;;;4965764;28;20065;-83
2021/12/10 10:21:33;;;;;;;8.50;4.05;;;3.80;99.90;;;;;;4972536;28;20038;-83
2021/12/10 10:23:59;;;;;;;6.35;2.80;;;3.90;99.90;;;;;;4977098;28;20647;-83
2021/12/10 10:26:33;;;;;;;6.90;3.22;;;3.90;99.90;;;;;;4975619;28;20042;-83
2021/12/10 10:29:08;;;;;;;5.90;2.95;;;4.00;99.90;;;;;;4977036;28;20049;-83
2021/12/10 10:31:36;;;;;;;6.63;2.95;;;4.10;99.90;;;;;;4976760;28;20069;-82
2021/12/10 10:34:03;;;;;;;6.35;3.20;;;4.20;99.90;;;;;;4957326;28;20034;-84
2021/12/10 10:36:31;;;;;;;7.97;3.15;;;4.40;99.90;;;;;;4973759;28;20042;-83
2021/12/10 10:39:10;;;;;;;8.80;3.40;;;4.70;99.90;;;;;;4974158;28;20061;-83
2021/12/10 10:41:38;;;;;;;6.20;2.65;;;5.20;99.90;;;;;;4982322;28;20102;-83
2021/12/10 10:44:05;;;;;;;9.23;2.72;;;5.90;99.90;;;;;;4972990;28;20034;-83
2021/12/10 10:46:31;;;;;;;7.07;2.60;;;6.30;99.90;;;;;;4961344;28;20066;-83
2021/12/10 10:48:57;;;;;;;6.95;2.50;;;6.60;99.90;;;;;;4973883;28;20101;-83
2021/12/10 10:51:31;;;;;;;5.50;2.58;;;6.80;99.90;;;;;;4972513;28;20045;-83
2021/12/10 10:53:58;;;;;;;6.75;2.90;;;7.00;99.90;;;;;;4976509;28;20038;-83
2021/12/10 10:56:34;;;;;;;4.43;2.20;;;7.30;99.90;;;;;;4971741;28;20035;-83
2021/12/10 10:59:09;;;;;;;3.92;1.70;;;7.40;99.90;;;;;;4975200;28;20046;-83
2021/12/10 11:01:41;;;;;;;4.38;1.73;;;7.60;99.90;;;;;;4967609;28;20042;-82
2021/12/10 11:04:24;;;;;;;5.22;1.83;;;7.80;99.90;;;;;;4975642;28;20058;-82
2021/12/10 11:06:52;;;;;;;6.50;2.00;;;7.90;99.90;;;;;;4976354;28;20523;-83
2021/12/10 11:09:27;;;;;;;6.32;2.38;;;8.00;99.90;;;;;;4975880;28;20483;-82
2021/12/10 11:12:03;;;;;;;5.95;1.85;;;8.10;99.90;;;;;;4976521;28;20054;-83
2021/12/10 11:14:34;;;;;;;7.45;1.83;;;8.00;99.90;;;;;;4975857;28;20185;-83
2021/12/10 11:17:26;;;;;;;6.25;2.05;;;8.00;99.90;;;;;;4973845;28;20468;-83
2021/12/10 11:19:59;;;;;;;8.00;1.60;;;8.00;99.90;;;;;;4979424;28;20042;-83
2021/12/10 11:22:26;;;;;;;5.45;1.85;;;7.90;99.90;;;;;;4974714;28;20053;-83
2021/12/10 11:24:57;;;;;;;5.25;2.00;;;7.90;99.90;;;;;;4953924;28;20192;-83
2021/12/10 11:27:31;;;;;;;7.93;1.83;;;7.90;99.90;;;;;;4975837;28;20399;-83
2021/12/10 11:30:02;;;;;;;7.43;2.08;;;8.00;99.90;;;;;;4958682;28;20042;-82
2021/12/10 11:32:54;;;;;;;9.13;2.87;;;8.10;99.90;;;;;;4958102;28;20046;-83
2021/12/10 11:35:32;;;;;;;4.20;2.07;;;8.10;99.90;;;;;;4960442;28;20038;-83
2021/12/10 11:38:04;;;;;;;7.30;2.42;;;8.10;99.90;;;;;;4970971;28;20556;-83
2021/12/10 11:40:42;;;;;;;7.97;2.00;;;7.80;99.90;;;;;;4959011;28;20404;-83
2021/12/10 11:46:26;;;;;;;4.55;1.80;;;7.30;99.90;;;;;;4973651;28;20077;-83
2021/12/10 11:49:11;;;;;;;8.70;1.95;;;7.10;99.90;;;;;;4970077;28;20061;-83
2021/12/10 11:51:42;;;;;;;4.97;1.80;;;7.10;99.90;;;;;;4961825;28;20414;-83
2021/12/10 11:54:22;;;;;;;4.05;1.73;;;7.10;99.90;;;;;;4955600;28;20049;-83
2021/12/10 11:56:56;;;;;;;6.25;1.90;;;7.10;99.90;;;;;;4958107;28;20176;-83
2021/12/10 11:59:33;;;;;;;5.95;1.73;;;7.20;99.90;;;;;;4957467;28;20038;-83
2021/12/10 12:02:06;;;;;;;4.53;1.63;;;7.20;99.90;;;;;;4976889;28;20046;-83
2021/12/10 12:04:44;;;;;;;5.55;1.58;;;7.40;99.90;;;;;;4971709;28;20050;-82
2021/12/10 12:07:16;;;;;;;6.22;2.00;;;7.40;99.90;;;;;;4984403;28;20042;-83
2021/12/10 12:09:43;;;;;;;4.05;1.63;;;7.60;99.90;;;;;;4952149;28;20053;-83
2021/12/10 12:12:13;;;;;;;3.92;2.05;;;7.60;99.90;;;;;;4969098;28;20052;-83
2021/12/10 12:14:44;;;;;;;8.02;1.60;;;7.80;99.90;;;;;;4971924;28;20077;-83
2021/12/10 12:17:46;;;;;;;4.10;1.90;;;8.00;99.90;;;;;;4953986;28;20089;-82
2021/12/10 12:20:30;;;;;;;2.92;1.20;;;8.20;99.90;;;;;;4965569;28;20035;-82
2021/12/10 12:25:55;;;;;;;3.53;1.25;;;8.30;99.90;;;;;;4966259;28;20077;-83
2021/12/10 12:28:24;;;;;;;2.78;1.27;;;8.40;99.90;;;;;;4964707;28;20108;-83
2021/12/10 12:30:54;;;;;;;4.85;1.80;;;8.50;99.90;;;;;;4981436;28;20455;-83
2021/12/10 12:33:20;;;;;;;4.68;1.70;;;8.60;99.90;;;;;;4968452;28;20047;-83
2021/12/10 12:35:46;;;;;;;4.65;1.60;;;8.70;99.90;;;;;;4953488;28;20084;-83
2021/12/10 12:38:23;;;;;;;6.43;1.63;;;8.90;99.90;;;;;;4956242;28;20049;-83
2021/12/10 12:41:25;;;;;;;4.38;1.60;;;9.10;99.90;;;;;;4966709;28;20044;-83
2021/12/10 12:44:14;;;;;;;5.63;1.65;;;9.20;99.90;;;;;;4974325;28;20054;-83
2021/12/10 12:47:16;;;;;;;5.88;1.67;;;9.30;99.90;;;;;;4971648;28;20525;-83
2021/12/10 12:49:47;;;;;;;6.40;1.85;;;9.20;99.90;;;;;;4952096;28;20042;-83
2021/12/10 12:52:21;;;;;;;4.45;1.75;;;9.00;99.90;;;;;;4959208;28;20509;-83
2021/12/10 12:55:05;;;;;;;3.72;1.42;;;8.80;99.90;;;;;;4967374;28;20133;-82
2021/12/10 12:57:49;;;;;;;4.00;1.50;;;8.60;99.90;;;;;;4968844;28;20408;-82
2021/12/10 13:00:22;;;;;;;6.38;1.55;;;8.30;99.90;;;;;;4954001;28;20042;-82
2021/12/10 13:02:53;;;;;;;4.25;1.40;;;8.10;99.90;;;;;;4972371;28;20080;-82
2021/12/10 13:05:28;;;;;;;7.32;1.67;;;7.80;99.90;;;;;;4953901;28;20456;-82
2021/12/10 13:08:04;;;;;;;4.35;1.45;;;7.60;99.90;;;;;;4954993;28;20109;-82
2021/12/10 13:10:32;;;;;;;4.30;1.33;;;7.50;99.90;;;;;;4977114;28;20042;-82
2021/12/10 13:13:10;;;;;;;6.32;1.42;;;7.30;99.90;;;;;;4969664;28;20538;-82